Time;durP1;ratioP1;P1;durP2;ratioP2;P2;SDS_P1;SDS_P2;PMS_P1;PMS_P2;Temp;Humidity;BMP_temperature;BMP_pressure;BME280_temperature;BME280_humidity;BME280_pressure;Samples;Min_cycle;Max_cycle;Signal;HPM_P1;HPM_P2
2023/02/28 00:00:38;;;;;;;9.00;7.70;;;;;;;;;;5091072;28;20204;-83
2023/02/28 00:03:05;;;;;;;12.87;8.23;;;;;;;;;;5090881;28;20204;-83
2023/02/28 00:05:32;;;;;;;8.80;7.90;;;;;;;;;;5105291;28;20199;-84
2023/02/28 00:08:00;;;;;;;12.60;9.20;;;;;;;;;;5103265;28;20219;-82
2023/02/28 00:10:30;;;;;;;15.50;9.30;;;;;;;;;;5105428;28;20195;-82
2023/02/28 00:13:00;;;;;;;10.40;8.83;;;;;;;;;;5111023;28;20203;-83
2023/02/28 00:15:27;;;;;;;10.13;8.40;;;;;;;;;;5095690;28;20212;-83
2023/02/28 00:17:54;;;;;;;11.50;7.93;;;;;;;;;;5090692;28;20204;-83
2023/02/28 00:20:21;;;;;;;11.43;8.23;;;;;;;;;;5106247;28;20207;-83
2023/02/28 00:22:51;;;;;;;8.90;8.00;;;;;;;;;;5102112;28;20220;-82
2023/02/28 00:25:21;;;;;;;9.00;8.10;;;;;;;;;;5104660;28;20207;-82
2023/02/28 00:27:48;;;;;;;9.47;7.43;;;;;;;;;;5101465;28;20208;-82
2023/02/28 00:30:16;;;;;;;10.07;7.90;;;;;;;;;;5111296;28;20606;-82
2023/02/28 00:32:43;;;;;;;10.77;8.00;;;;;;;;;;5100248;28;20204;-83
2023/02/28 00:35:11;;;;;;;12.47;8.77;;;;;;;;;;5094544;28;20204;-83
2023/02/28 00:37:38;;;;;;;11.63;8.17;;;;;;;;;;5094690;28;20203;-82
2023/02/28 00:40:06;;;;;;;10.07;8.37;;;;;;;;;;5108144;28;20203;-83
2023/02/28 00:42:35;;;;;;;9.13;8.10;;;;;;;;;;5094410;28;20270;-83
2023/02/28 00:45:03;;;;;;;9.87;8.87;;;;;;;;;;5113223;28;20205;-82
2023/02/28 00:47:30;;;;;;;12.63;8.70;;;;;;;;;;5114594;28;20647;-82
2023/02/28 00:49:56;;;;;;;11.47;10.13;;;;;;;;;;5095574;28;20196;-83
2023/02/28 00:52:23;;;;;;;13.53;8.87;;;;;;;;;;5094628;28;20645;-82
2023/02/28 00:54:50;;;;;;;9.53;8.03;;;;;;;;;;5114175;28;20203;-82
2023/02/28 00:57:17;;;;;;;8.87;7.47;;;;;;;;;;5114758;28;20203;-82
2023/02/28 00:59:45;;;;;;;11.43;7.77;;;;;;;;;;5101380;28;20198;-83
2023/02/28 01:02:11;;;;;;;11.23;8.33;;;;;;;;;;5114156;28;20605;-83
2023/02/28 01:04:38;;;;;;;10.20;8.50;;;;;;;;;;5107114;28;20574;-82
2023/02/28 01:07:05;;;;;;;11.67;8.77;;;;;;;;;;5094137;28;20200;-82
2023/02/28 01:09:32;;;;;;;12.93;10.33;;;;;;;;;;5094396;28;20205;-83
2023/02/28 01:11:59;;;;;;;7.90;7.00;;;;;;;;;;5094928;28;20196;-84
2023/02/28 01:14:25;;;;;;;9.30;7.77;;;;;;;;;;5107530;28;20204;-82
2023/02/28 01:16:54;;;;;;;9.43;8.50;;;;;;;;;;5107190;28;20199;-83
2023/02/28 01:19:20;;;;;;;11.03;7.17;;;;;;;;;;5113995;28;20588;-82
2023/02/28 01:21:47;;;;;;;12.33;8.37;;;;;;;;;;5099753;28;20235;-82
2023/02/28 01:24:14;;;;;;;10.17;9.17;;;;;;;;;;5101170;28;20208;-83
2023/02/28 01:26:40;;;;;;;13.03;8.13;;;;;;;;;;5114335;28;20203;-82
2023/02/28 01:29:07;;;;;;;12.03;8.83;;;;;;;;;;5114103;28;20200;-83
2023/02/28 01:31:34;;;;;;;8.70;7.90;;;;;;;;;;5112287;28;20214;-83
2023/02/28 01:34:02;;;;;;;10.77;8.07;;;;;;;;;;5093672;28;20211;-82
2023/02/28 01:36:29;;;;;;;9.57;8.33;;;;;;;;;;5093779;28;20208;-83
2023/02/28 01:38:56;;;;;;;11.07;8.83;;;;;;;;;;5102148;28;20207;-82
2023/02/28 01:41:25;;;;;;;11.03;7.83;;;;;;;;;;5113268;28;20231;-82
2023/02/28 01:43:58;;;;;;;13.33;7.87;;;;;;;;;;5104491;28;20196;-82
2023/02/28 01:46:25;;;;;;;12.30;8.43;;;;;;;;;;5110106;28;20591;-82
2023/02/28 01:48:54;;;;;;;11.50;9.23;;;;;;;;;;5113354;28;20227;-82
2023/02/28 01:51:24;;;;;;;8.90;7.83;;;;;;;;;;5113126;28;20628;-82
2023/02/28 01:53:54;;;;;;;10.13;8.83;;;;;;;;;;5113421;28;20200;-82
2023/02/28 01:56:23;;;;;;;12.07;9.40;;;;;;;;;;5107907;28;20257;-82
2023/02/28 01:58:51;;;;;;;11.27;10.17;;;;;;;;;;5092909;28;20201;-82
2023/02/28 02:01:21;;;;;;;11.50;9.10;;;;;;;;;;5112327;28;20215;-82
2023/02/28 02:03:55;;;;;;;12.23;8.80;;;;;;;;;;5113667;28;20195;-83
2023/02/28 02:06:23;;;;;;;11.80;9.73;;;;;;;;;;5113154;28;20200;-82
2023/02/28 02:08:50;;;;;;;9.40;8.30;;;;;;;;;;5112349;28;20272;-83
2023/02/28 02:11:19;;;;;;;10.80;9.03;;;;;;;;;;5100797;28;20203;-81
2023/02/28 02:14:02;;;;;;;16.47;9.90;;;;;;;;;;5112662;28;20230;-82
2023/02/28 02:16:37;;;;;;;12.20;9.13;;;;;;;;;;5113247;28;20624;-82
2023/02/28 02:19:17;;;;;;;11.83;9.37;;;;;;;;;;5112818;28;20195;-84
2023/02/28 02:22:16;;;;;;;9.27;7.57;;;;;;;;;;5099046;28;20696;-82
2023/02/28 02:25:12;;;;;;;11.43;8.07;;;;;;;;;;5072061;28;20211;-82
2023/02/28 02:28:12;;;;;;;8.57;7.73;;;;;;;;;;5099510;28;20199;-82
2023/02/28 02:31:27;;;;;;;16.20;8.17;;;;;;;;;;5092316;28;20201;-82
2023/02/28 02:34:32;;;;;;;11.13;7.73;;;;;;;;;;5041420;28;20611;-82
2023/02/28 02:37:09;;;;;;;9.90;7.47;;;;;;;;;;5105744;28;20196;-82
2023/02/28 02:39:42;;;;;;;8.37;7.57;;;;;;;;;;5106247;28;20199;-82
2023/02/28 02:42:14;;;;;;;12.70;8.07;;;;;;;;;;5092098;28;20243;-82
2023/02/28 02:44:44;;;;;;;13.17;7.97;;;;;;;;;;5095397;28;20256;-82
2023/02/28 02:47:13;;;;;;;11.13;7.63;;;;;;;;;;5112381;28;20694;-82
2023/02/28 02:49:44;;;;;;;10.47;8.40;;;;;;;;;;5112166;28;20200;-82
2023/02/28 02:52:13;;;;;;;9.47;8.37;;;;;;;;;;5112214;28;20226;-82
2023/02/28 02:54:43;;;;;;;9.47;8.00;;;;;;;;;;5112757;28;20584;-82
2023/02/28 02:57:12;;;;;;;8.77;7.80;;;;;;;;;;5112051;28;20268;-83
2023/02/28 02:59:40;;;;;;;9.20;7.30;;;;;;;;;;5098934;28;20200;-83
2023/02/28 03:02:09;;;;;;;11.80;7.70;;;;;;;;;;5111850;28;20223;-82
2023/02/28 03:04:39;;;;;;;10.37;8.80;;;;;;;;;;5105017;28;20223;-82
2023/02/28 03:07:06;;;;;;;9.93;7.73;;;;;;;;;;5105325;28;20754;-83
2023/02/28 03:09:35;;;;;;;10.67;8.30;;;;;;;;;;5091857;28;20215;-82
2023/02/28 03:12:03;;;;;;;8.03;7.20;;;;;;;;;;5106964;28;20221;-82
2023/02/28 03:14:40;;;;;;;9.83;8.00;;;;;;;;;;5104786;28;20204;-82
2023/02/28 03:17:25;;;;;;;9.77;7.40;;;;;;;;;;5107073;28;20723;-82
2023/02/28 03:20:06;;;;;;;10.27;7.93;;;;;;;;;;5111910;28;20211;-82
2023/02/28 03:22:53;;;;;;;10.40;8.30;;;;;;;;;;5091988;28;20293;-86
2023/02/28 03:25:28;;;;;;;9.07;6.70;;;;;;;;;;5108066;28;20218;-83
2023/02/28 03:28:02;;;;;;;9.83;7.37;;;;;;;;;;5100462;28;20706;-82
2023/02/28 03:30:32;;;;;;;10.47;7.57;;;;;;;;;;5097079;28;20282;-82
2023/02/28 03:33:04;;;;;;;10.23;6.97;;;;;;;;;;5099002;28;20215;-83
2023/02/28 03:35:34;;;;;;;10.23;7.60;;;;;;;;;;5098750;28;20200;-81
2023/02/28 03:38:05;;;;;;;9.57;7.27;;;;;;;;;;5097571;28;20200;-82
2023/02/28 03:40:34;;;;;;;13.13;6.93;;;;;;;;;;5103827;28;20254;-82
2023/02/28 03:43:05;;;;;;;9.63;6.43;;;;;;;;;;5091327;28;20739;-82
2023/02/28 03:45:34;;;;;;;11.93;9.53;;;;;;;;;;5090906;28;20439;-82
2023/02/28 03:48:03;;;;;;;8.77;7.13;;;;;;;;;;5108054;28;20243;-82
2023/02/28 03:50:37;;;;;;;9.13;7.03;;;;;;;;;;5111709;28;20203;-82
2023/02/28 03:53:08;;;;;;;6.93;6.23;;;;;;;;;;5093359;28;20203;-82
2023/02/28 03:55:40;;;;;;;11.30;6.17;;;;;;;;;;5103210;28;20207;-83
2023/02/28 03:58:13;;;;;;;7.67;6.77;;;;;;;;;;5110969;28;20257;-82
2023/02/28 04:00:42;;;;;;;17.13;11.50;;;;;;;;;;5111104;28;20196;-82
2023/02/28 04:03:09;;;;;;;10.67;7.77;;;;;;;;;;5103587;28;20227;-82
2023/02/28 04:05:49;;;;;;;10.90;7.00;;;;;;;;;;5091720;28;20701;-83
2023/02/28 04:08:15;;;;;;;12.67;7.90;;;;;;;;;;5105120;28;20615;-82
2023/02/28 04:10:46;;;;;;;11.70;7.47;;;;;;;;;;5113989;28;20210;-82
2023/02/28 04:13:13;;;;;;;8.43;6.70;;;;;;;;;;5118016;28;20195;-82
2023/02/28 04:15:40;;;;;;;11.40;7.10;;;;;;;;;;5101119;28;20202;-82
2023/02/28 04:18:07;;;;;;;8.67;6.23;;;;;;;;;;5097693;28;20200;-82
2023/02/28 04:20:34;;;;;;;9.93;7.37;;;;;;;;;;5115234;28;20716;-82
2023/02/28 04:23:01;;;;;;;8.03;7.07;;;;;;;;;;5107166;28;20238;-82
2023/02/28 04:25:27;;;;;;;13.63;5.90;;;;;;;;;;5101968;28;20199;-82
2023/02/28 04:27:55;;;;;;;7.77;6.47;;;;;;;;;;5118227;28;20207;-82
2023/02/28 04:30:22;;;;;;;7.33;6.30;;;;;;;;;;5099210;28;20344;-82
2023/02/28 04:32:49;;;;;;;10.67;6.07;;;;;;;;;;5097859;28;20208;-82
2023/02/28 04:35:16;;;;;;;7.00;6.30;;;;;;;;;;5111084;28;20265;-82
2023/02/28 04:37:43;;;;;;;11.07;6.80;;;;;;;;;;5098077;28;20265;-83
2023/02/28 04:40:11;;;;;;;10.87;7.47;;;;;;;;;;5102589;28;20228;-83
2023/02/28 04:42:38;;;;;;;8.03;7.17;;;;;;;;;;5118052;28;20343;-83
2023/02/28 04:45:10;;;;;;;7.17;6.43;;;;;;;;;;5112172;28;20200;-83
2023/02/28 04:47:36;;;;;;;7.80;6.20;;;;;;;;;;5110505;28;20263;-83
2023/02/28 04:50:04;;;;;;;10.07;7.63;;;;;;;;;;5117494;28;20215;-82
2023/02/28 04:52:31;;;;;;;9.87;8.67;;;;;;;;;;5104496;28;20246;-82
2023/02/28 04:54:57;;;;;;;11.43;8.27;;;;;;;;;;5097369;28;20675;-83
2023/02/28 04:57:24;;;;;;;10.50;7.53;;;;;;;;;;5097151;28;20654;-82
2023/02/28 04:59:52;;;;;;;7.97;6.97;;;;;;;;;;5104471;28;20199;-84
2023/02/28 05:02:21;;;;;;;9.30;7.53;;;;;;;;;;5117427;28;20227;-83
2023/02/28 05:04:47;;;;;;;10.47;6.83;;;;;;;;;;5117664;28;20828;-82
2023/02/28 05:07:14;;;;;;;12.03;9.77;;;;;;;;;;5117750;28;20203;-82
2023/02/28 05:09:43;;;;;;;11.37;8.70;;;;;;;;;;5117316;28;20561;-82
2023/02/28 05:12:10;;;;;;;7.90;6.50;;;;;;;;;;5103608;28;20200;-83
2023/02/28 05:14:37;;;;;;;10.23;6.93;;;;;;;;;;5108797;28;20200;-83
2023/02/28 05:17:04;;;;;;;7.40;6.27;;;;;;;;;;5110959;28;20673;-83
2023/02/28 05:19:32;;;;;;;9.60;6.93;;;;;;;;;;5103168;28;20196;-82
2023/02/28 05:21:59;;;;;;;10.80;7.23;;;;;;;;;;5111644;28;20253;-83
2023/02/28 05:24:25;;;;;;;10.07;6.27;;;;;;;;;;5094017;28;20660;-82
2023/02/28 05:26:54;;;;;;;8.97;7.00;;;;;;;;;;5096163;28;20291;-82
2023/02/28 05:29:20;;;;;;;10.00;6.73;;;;;;;;;;5114049;28;20204;-83
2023/02/28 05:31:47;;;;;;;12.50;7.10;;;;;;;;;;5097856;28;20644;-82
2023/02/28 05:34:15;;;;;;;9.87;7.43;;;;;;;;;;5093608;28;20200;-82
2023/02/28 05:36:43;;;;;;;8.57;7.67;;;;;;;;;;5093529;28;20200;-82
2023/02/28 05:39:12;;;;;;;6.90;6.17;;;;;;;;;;5103806;28;20331;-82
2023/02/28 05:41:43;;;;;;;7.17;5.53;;;;;;;;;;5096644;28;20653;-83
2023/02/28 05:44:10;;;;;;;8.03;5.43;;;;;;;;;;5093527;28;20727;-83
2023/02/28 05:46:36;;;;;;;7.60;5.40;;;;;;;;;;5093451;28;20208;-82
2023/02/28 05:49:03;;;;;;;13.83;6.17;;;;;;;;;;5093069;28;20232;-82
2023/02/28 05:51:30;;;;;;;10.97;6.87;;;;;;;;;;5098932;28;20199;-82
2023/02/28 05:54:01;;;;;;;6.77;5.93;;;;;;;;;;5101299;28;20204;-82
2023/02/28 05:56:28;;;;;;;13.13;8.40;;;;;;;;;;5099111;28;20195;-82
2023/02/28 05:58:55;;;;;;;8.90;7.27;;;;;;;;;;5113541;28;20207;-83
2023/02/28 06:01:25;;;;;;;32.67;21.17;;;;;;;;;;5113546;28;20210;-82
2023/02/28 06:03:51;;;;;;;19.50;14.30;;;;;;;;;;5099427;28;20235;-82
2023/02/28 06:06:18;;;;;;;9.10;8.20;;;;;;;;;;5092987;28;20196;-82
2023/02/28 06:08:45;;;;;;;9.13;6.83;;;;;;;;;;5093976;28;20211;-83
2023/02/28 06:11:13;;;;;;;10.07;8.43;;;;;;;;;;5106088;28;20208;-83
2023/02/28 06:13:40;;;;;;;9.27;8.47;;;;;;;;;;5093845;28;20204;-83
2023/02/28 06:16:07;;;;;;;8.53;7.63;;;;;;;;;;5105775;28;20215;-82
2023/02/28 06:18:34;;;;;;;8.00;7.07;;;;;;;;;;5107085;28;20286;-83
2023/02/28 06:21:01;;;;;;;8.80;7.00;;;;;;;;;;5113429;28;20564;-83
2023/02/28 06:23:28;;;;;;;8.77;6.57;;;;;;;;;;5112960;28;20223;-83
2023/02/28 06:25:57;;;;;;;9.63;6.80;;;;;;;;;;5104667;28;20216;-82
2023/02/28 06:28:26;;;;;;;7.27;5.30;;;;;;;;;;5107956;28;20200;-81
2023/02/28 06:30:53;;;;;;;8.43;5.47;;;;;;;;;;5103433;28;20196;-83
2023/02/28 06:33:19;;;;;;;11.03;7.33;;;;;;;;;;5095053;28;20212;-82
2023/02/28 06:35:47;;;;;;;9.07;7.40;;;;;;;;;;5103358;28;20204;-82
2023/02/28 06:38:14;;;;;;;13.67;10.47;;;;;;;;;;5095474;28;20264;-82
2023/02/28 06:40:41;;;;;;;15.50;9.97;;;;;;;;;;5112459;28;20630;-83
2023/02/28 06:43:08;;;;;;;17.60;10.63;;;;;;;;;;5112749;28;20611;-82
2023/02/28 06:45:36;;;;;;;13.77;8.10;;;;;;;;;;5112498;28;20203;-83
2023/02/28 06:48:03;;;;;;;11.37;7.73;;;;;;;;;;5098701;28;20713;-83
2023/02/28 06:50:30;;;;;;;10.80;6.87;;;;;;;;;;5112754;28;20207;-82
2023/02/28 06:52:57;;;;;;;7.10;6.40;;;;;;;;;;5112373;28;20271;-83
2023/02/28 06:55:24;;;;;;;11.57;9.07;;;;;;;;;;5100141;28;20626;-82
2023/02/28 06:57:51;;;;;;;9.43;7.47;;;;;;;;;;5105522;28;20203;-83
2023/02/28 07:00:18;;;;;;;14.13;8.20;;;;;;;;;;5091454;28;20698;-83
2023/02/28 07:02:47;;;;;;;20.77;12.03;;;;;;;;;;5111259;28;20551;-82
2023/02/28 07:05:15;;;;;;;14.97;10.87;;;;;;;;;;5099053;28;20245;-83
2023/02/28 07:07:44;;;;;;;9.83;8.83;;;;;;;;;;5105272;28;20196;-83
2023/02/28 07:10:12;;;;;;;8.07;6.03;;;;;;;;;;5105367;28;20250;-84
2023/02/28 07:12:39;;;;;;;5.87;5.17;;;;;;;;;;5112311;28;20195;-82
2023/02/28 07:15:07;;;;;;;9.33;5.57;;;;;;;;;;5099203;28;20631;-83
2023/02/28 07:17:33;;;;;;;11.80;6.37;;;;;;;;;;5091291;28;20694;-82
2023/02/28 07:20:04;;;;;;;7.70;5.13;;;;;;;;;;5104698;28;20256;-82
2023/02/28 07:22:31;;;;;;;9.10;5.83;;;;;;;;;;5091944;28;20200;-82
2023/02/28 07:24:57;;;;;;;8.73;6.67;;;;;;;;;;5091245;28;20710;-85
2023/02/28 07:27:25;;;;;;;8.43;7.63;;;;;;;;;;5098395;28;20206;-82
2023/02/28 07:29:52;;;;;;;10.57;6.70;;;;;;;;;;5111549;28;20203;-83
2023/02/28 07:32:20;;;;;;;9.40;6.17;;;;;;;;;;5111593;28;20208;-82
2023/02/28 07:34:47;;;;;;;8.17;6.97;;;;;;;;;;5110768;28;20204;-82
2023/02/28 07:37:15;;;;;;;11.97;6.43;;;;;;;;;;5091581;28;20216;-82
2023/02/28 07:39:43;;;;;;;16.37;7.83;;;;;;;;;;5092427;28;20209;-83
2023/02/28 07:42:11;;;;;;;10.83;8.67;;;;;;;;;;5103125;28;20204;-82
2023/02/28 07:44:40;;;;;;;13.83;9.33;;;;;;;;;;5091268;28;20224;-81
2023/02/28 07:47:08;;;;;;;11.90;8.97;;;;;;;;;;5100361;28;20231;-82
2023/02/28 07:49:35;;;;;;;19.37;11.27;;;;;;;;;;5097776;28;20242;-82
2023/02/28 07:52:02;;;;;;;18.53;12.13;;;;;;;;;;5111482;28;20681;-82
2023/02/28 07:54:30;;;;;;;13.27;11.27;;;;;;;;;;5108272;28;20207;-82
2023/02/28 07:56:57;;;;;;;11.70;8.47;;;;;;;;;;5091292;28;20204;-82
2023/02/28 07:59:24;;;;;;;10.00;8.00;;;;;;;;;;5094859;28;20275;-82
2023/02/28 08:01:51;;;;;;;9.93;8.93;;;;;;;;;;5100471;28;20223;-82
2023/02/28 08:04:18;;;;;;;8.80;7.73;;;;;;;;;;5090997;28;20269;-82
2023/02/28 08:06:45;;;;;;;8.90;7.30;;;;;;;;;;5102206;28;20199;-82
2023/02/28 08:09:12;;;;;;;13.00;8.23;;;;;;;;;;5110640;28;20677;-83
2023/02/28 08:11:40;;;;;;;10.10;7.93;;;;;;;;;;5111194;28;20256;-82
2023/02/28 08:14:07;;;;;;;10.33;8.23;;;;;;;;;;5093794;28;20195;-82
2023/02/28 08:16:33;;;;;;;14.47;8.17;;;;;;;;;;5102009;28;20801;-82
2023/02/28 08:19:00;;;;;;;12.93;7.40;;;;;;;;;;5111178;28;20275;-83
2023/02/28 08:21:27;;;;;;;13.17;7.50;;;;;;;;;;5099552;28;20657;-82
2023/02/28 08:23:54;;;;;;;13.93;11.50;;;;;;;;;;5096012;28;20223;-83
2023/02/28 08:26:21;;;;;;;13.20;9.83;;;;;;;;;;5111307;28;20587;-82
2023/02/28 08:28:50;;;;;;;11.60;9.80;;;;;;;;;;5110734;28;20207;-83
2023/02/28 08:31:17;;;;;;;12.23;10.30;;;;;;;;;;5098561;28;20204;-83
2023/02/28 08:33:56;;;;;;;14.63;10.50;;;;;;;;;;5091201;28;20199;-83
2023/02/28 08:36:25;;;;;;;9.40;7.73;;;;;;;;;;5092022;28;20685;-82
2023/02/28 08:38:52;;;;;;;12.77;9.90;;;;;;;;;;5102683;28;20667;-82
2023/02/28 08:41:18;;;;;;;12.07;7.70;;;;;;;;;;5091934;28;20204;-83
2023/02/28 08:43:45;;;;;;;13.30;8.90;;;;;;;;;;5102687;28;20269;-82
2023/02/28 08:46:14;;;;;;;14.23;11.10;;;;;;;;;;5090195;28;20691;-83
2023/02/28 08:48:41;;;;;;;13.20;10.10;;;;;;;;;;5090786;28;20220;-82
2023/02/28 08:51:10;;;;;;;11.33;6.83;;;;;;;;;;5106283;28;20211;-83
2023/02/28 08:53:38;;;;;;;9.47;7.13;;;;;;;;;;5110887;28;20200;-82
2023/02/28 08:56:06;;;;;;;20.87;13.53;;;;;;;;;;5111321;28;20207;-82
2023/02/28 08:58:34;;;;;;;23.27;14.43;;;;;;;;;;5105039;28;20199;-82
2023/02/28 09:01:01;;;;;;;11.77;8.37;;;;;;;;;;5114306;28;20299;-82
2023/02/28 09:03:29;;;;;;;13.77;9.13;;;;;;;;;;5114494;28;20200;-83
2023/02/28 09:05:57;;;;;;;11.70;8.43;;;;;;;;;;5096709;28;20257;-82
2023/02/28 09:08:24;;;;;;;7.67;6.90;;;;;;;;;;5105157;28;20634;-82
2023/02/28 09:10:56;;;;;;;8.10;6.23;;;;;;;;;;5110286;28;20215;-81
2023/02/28 09:13:23;;;;;;;7.47;6.43;;;;;;;;;;5094130;28;20200;-82
2023/02/28 09:15:50;;;;;;;8.73;6.37;;;;;;;;;;5107358;28;20204;-82
2023/02/28 09:18:17;;;;;;;9.03;6.53;;;;;;;;;;5093971;28;20204;-82
2023/02/28 09:20:45;;;;;;;8.67;7.77;;;;;;;;;;5113027;28;20199;-83
2023/02/28 09:23:13;;;;;;;10.87;6.63;;;;;;;;;;5114312;28;20204;-83
2023/02/28 09:25:46;;;;;;;9.03;6.87;;;;;;;;;;5113841;28;20732;-88
2023/02/28 09:28:14;;;;;;;10.30;6.40;;;;;;;;;;5113863;28;20208;-82
2023/02/28 09:30:40;;;;;;;8.30;7.13;;;;;;;;;;5114180;28;20202;-82
2023/02/28 09:33:07;;;;;;;7.47;6.23;;;;;;;;;;5114421;28;20208;-84
2023/02/28 09:35:34;;;;;;;11.10;6.23;;;;;;;;;;5100542;28;20199;-82
2023/02/28 09:38:02;;;;;;;10.50;5.97;;;;;;;;;;5114039;28;20214;-83
2023/02/28 09:40:30;;;;;;;8.20;6.50;;;;;;;;;;5100779;28;20734;-81
2023/02/28 09:42:58;;;;;;;7.73;6.07;;;;;;;;;;5099346;28;20702;-82
2023/02/28 09:45:33;;;;;;;10.13;6.73;;;;;;;;;;5093197;28;20234;-82
2023/02/28 09:48:04;;;;;;;8.13;6.17;;;;;;;;;;5106627;28;20227;-82
2023/02/28 09:50:34;;;;;;;9.33;6.73;;;;;;;;;;5093425;28;20204;-82
2023/02/28 09:53:07;;;;;;;9.53;7.93;;;;;;;;;;5093660;28;20196;-82
2023/02/28 09:55:37;;;;;;;11.23;6.60;;;;;;;;;;5093656;28;20207;-82
2023/02/28 09:58:04;;;;;;;7.73;6.93;;;;;;;;;;5098565;28;20265;-83
2023/02/28 10:00:33;;;;;;;7.53;5.97;;;;;;;;;;5113650;28;20207;-82
2023/02/28 10:03:07;;;;;;;12.83;10.70;;;;;;;;;;5094269;28;20291;-82
2023/02/28 10:05:37;;;;;;;7.90;7.10;;;;;;;;;;5105987;28;20223;-84
2023/02/28 10:08:10;;;;;;;9.43;6.90;;;;;;;;;;5100871;28;20207;-82
2023/02/28 10:10:41;;;;;;;8.87;7.97;;;;;;;;;;5100082;28;20200;-83
2023/02/28 10:13:15;;;;;;;9.77;7.70;;;;;;;;;;5114031;28;20195;-82
2023/02/28 10:15:43;;;;;;;16.63;12.27;;;;;;;;;;5099861;28;20195;-83
2023/02/28 10:18:12;;;;;;;14.33;10.33;;;;;;;;;;5113436;28;20682;-82
2023/02/28 10:20:40;;;;;;;12.37;7.63;;;;;;;;;;5099288;28;20665;-82
2023/02/28 10:23:14;;;;;;;12.53;9.40;;;;;;;;;;5113361;28;20283;-82
2023/02/28 10:25:41;;;;;;;12.47;8.70;;;;;;;;;;5113273;28;20227;-82
2023/02/28 10:28:15;;;;;;;12.40;7.97;;;;;;;;;;5113087;28;20735;-82
2023/02/28 10:30:45;;;;;;;10.07;8.37;;;;;;;;;;5092450;28;20683;-83
2023/02/28 10:33:21;;;;;;;14.27;6.60;;;;;;;;;;5093750;28;20196;-83
2023/02/28 10:35:48;;;;;;;15.53;8.73;;;;;;;;;;5103328;28;20208;-83
2023/02/28 10:38:22;;;;;;;10.73;7.37;;;;;;;;;;5095627;28;20200;-82
2023/02/28 10:40:50;;;;;;;12.17;10.83;;;;;;;;;;5102049;28;20258;-82
2023/02/28 10:43:22;;;;;;;12.37;8.50;;;;;;;;;;5110381;28;20311;-82
2023/02/28 10:46:13;;;;;;;12.60;10.93;;;;;;;;;;5112853;28;20231;-82
2023/02/28 10:48:42;;;;;;;18.00;11.57;;;;;;;;;;5113230;28;20255;-81
2023/02/28 10:51:11;;;;;;;17.93;11.00;;;;;;;;;;5098661;28;20682;-82
2023/02/28 10:53:49;;;;;;;13.80;7.57;;;;;;;;;;5102605;28;20732;-84
2023/02/28 10:56:18;;;;;;;16.67;8.37;;;;;;;;;;5110485;28;20631;-82
2023/02/28 10:58:56;;;;;;;11.43;7.30;;;;;;;;;;5100483;28;20208;-82
2023/02/28 11:01:24;;;;;;;22.00;8.60;;;;;;;;;;5098977;28;20626;-82
2023/02/28 11:03:52;;;;;;;13.70;7.70;;;;;;;;;;5098076;28;20201;-83
2023/02/28 11:06:21;;;;;;;12.97;7.83;;;;;;;;;;5091764;28;20200;-82
2023/02/28 11:08:52;;;;;;;16.60;8.07;;;;;;;;;;5107273;28;20294;-82
2023/02/28 11:11:19;;;;;;;11.73;7.10;;;;;;;;;;5103024;28;20291;-82
2023/02/28 11:13:49;;;;;;;8.07;7.03;;;;;;;;;;5093157;28;20347;-82
2023/02/28 11:16:17;;;;;;;11.33;6.77;;;;;;;;;;5112100;28;20238;-82
2023/02/28 11:18:47;;;;;;;10.50;8.07;;;;;;;;;;5097545;28;20196;-82
2023/02/28 11:21:21;;;;;;;9.43;7.07;;;;;;;;;;5101661;28;20196;-82
2023/02/28 11:23:50;;;;;;;11.07;6.90;;;;;;;;;;5091681;28;20712;-82
2023/02/28 11:26:18;;;;;;;12.07;7.23;;;;;;;;;;5103238;28;20231;-82
2023/02/28 11:28:44;;;;;;;11.83;7.10;;;;;;;;;;5097865;28;20706;-82
2023/02/28 11:31:22;;;;;;;10.43;8.57;;;;;;;;;;5111538;28;20256;-81
2023/02/28 11:33:50;;;;;;;7.90;6.57;;;;;;;;;;5111869;28;20214;-83
2023/02/28 11:36:20;;;;;;;9.00;7.03;;;;;;;;;;5098229;28;20208;-83
2023/02/28 11:38:50;;;;;;;9.33;8.33;;;;;;;;;;5098372;28;20558;-82
2023/02/28 11:41:32;;;;;;;10.40;9.37;;;;;;;;;;5111071;28;20226;-82
2023/02/28 11:44:11;;;;;;;8.90;7.40;;;;;;;;;;5111809;28;20204;-82
2023/02/28 11:46:42;;;;;;;7.40;6.63;;;;;;;;;;5105871;28;20200;-82
2023/02/28 11:49:21;;;;;;;7.63;6.37;;;;;;;;;;5104210;28;20693;-82
2023/02/28 11:51:49;;;;;;;8.83;7.70;;;;;;;;;;5111321;28;20252;-82
2023/02/28 11:54:29;;;;;;;11.03;7.43;;;;;;;;;;5096994;28;20212;-82
2023/02/28 11:56:58;;;;;;;9.73;8.00;;;;;;;;;;5090671;28;20640;-82
2023/02/28 11:59:38;;;;;;;10.87;7.37;;;;;;;;;;5091532;28;20265;-82
2023/02/28 12:02:21;;;;;;;8.70;6.93;;;;;;;;;;5090808;28;20207;-83
2023/02/28 12:04:55;;;;;;;10.27;8.97;;;;;;;;;;5091307;28;20220;-82
2023/02/28 12:07:28;;;;;;;9.67;7.70;;;;;;;;;;5104444;28;20278;-82
2023/02/28 12:10:05;;;;;;;17.00;12.60;;;;;;;;;;5101178;28;20307;-82
2023/02/28 12:12:40;;;;;;;10.90;8.53;;;;;;;;;;5093543;28;20633;-82
2023/02/28 12:15:18;;;;;;;15.90;10.87;;;;;;;;;;5091358;28;20208;-82
2023/02/28 12:17:54;;;;;;;13.67;11.57;;;;;;;;;;5098665;28;20622;-83
2023/02/28 12:20:29;;;;;;;10.00;8.67;;;;;;;;;;5097762;28;20222;-83
2023/02/28 12:23:08;;;;;;;18.77;14.17;;;;;;;;;;5101350;28;20207;-82
2023/02/28 12:25:50;;;;;;;17.70;15.10;;;;;;;;;;5090714;28;20215;-82
2023/02/28 12:28:21;;;;;;;20.10;15.20;;;;;;;;;;5104995;28;20241;-82
2023/02/28 12:30:53;;;;;;;16.73;12.67;;;;;;;;;;5115050;28;20211;-82
2023/02/28 12:33:22;;;;;;;18.67;14.33;;;;;;;;;;5099521;28;20207;-82
2023/02/28 12:35:51;;;;;;;15.67;12.83;;;;;;;;;;5103836;28;20207;-82
2023/02/28 12:38:20;;;;;;;18.87;12.57;;;;;;;;;;5101588;28;20198;-83
2023/02/28 12:40:55;;;;;;;25.80;17.83;;;;;;;;;;5115305;28;20253;-83
2023/02/28 12:43:23;;;;;;;21.03;13.97;;;;;;;;;;5096452;28;20204;-83
2023/02/28 12:45:53;;;;;;;22.33;15.93;;;;;;;;;;5107216;28;20227;-84
2023/02/28 12:48:27;;;;;;;14.83;10.87;;;;;;;;;;5109427;28;20285;-84
2023/02/28 12:50:54;;;;;;;15.43;11.70;;;;;;;;;;5108204;28;20207;-83
2023/02/28 12:53:26;;;;;;;34.67;24.83;;;;;;;;;;5094709;28;20592;-82
2023/02/28 12:56:00;;;;;;;33.80;22.90;;;;;;;;;;5108341;28;20192;-82
2023/02/28 12:58:32;;;;;;;27.27;18.43;;;;;;;;;;5094132;28;20687;-83
2023/02/28 13:01:14;;;;;;;29.83;20.93;;;;;;;;;;5094434;28;20261;-83
2023/02/28 13:03:53;;;;;;;38.30;25.57;;;;;;;;;;5107771;28;20199;-82
2023/02/28 13:06:37;;;;;;;33.83;19.23;;;;;;;;;;5106487;28;20280;-82
2023/02/28 13:09:06;;;;;;;19.53;13.80;;;;;;;;;;5085335;28;20200;-82
2023/02/28 13:11:40;;;;;;;20.93;16.20;;;;;;;;;;5104130;28;20641;-82
2023/02/28 13:14:19;;;;;;;18.53;15.50;;;;;;;;;;5107832;28;20192;-82
2023/02/28 13:16:56;;;;;;;27.10;18.73;;;;;;;;;;5094316;28;20265;-82
2023/02/28 13:19:25;;;;;;;26.57;20.13;;;;;;;;;;5093696;28;20207;-82
2023/02/28 13:21:52;;;;;;;19.27;14.67;;;;;;;;;;5095984;28;20206;-81
2023/02/28 13:24:42;;;;;;;22.13;14.83;;;;;;;;;;5114149;28;20681;-82
2023/02/28 13:27:26;;;;;;;19.63;15.47;;;;;;;;;;5108948;28;20204;-83
2023/02/28 13:29:53;;;;;;;24.53;17.60;;;;;;;;;;5094244;28;20269;-82
2023/02/28 13:32:31;;;;;;;24.00;17.67;;;;;;;;;;5106525;28;20637;-82
2023/02/28 13:35:31;;;;;;;12.23;10.93;;;;;;;;;;5096652;28;20215;-84
2023/02/28 13:38:23;;;;;;;31.87;23.53;;;;;;;;;;5113627;28;20199;-82
2023/02/28 13:40:52;;;;;;;32.63;21.17;;;;;;;;;;5113115;28;20203;-82
2023/02/28 13:43:20;;;;;;;19.00;14.03;;;;;;;;;;5108933;28;20196;-83
2023/02/28 13:46:11;;;;;;;17.87;13.17;;;;;;;;;;5093720;28;20228;-84
2023/02/28 13:48:38;;;;;;;108.03;54.63;;;;;;;;;;5103036;28;20223;-82
2023/02/28 13:51:32;;;;;;;27.77;19.77;;;;;;;;;;5110701;28;20934;-82
2023/02/28 13:54:05;;;;;;;33.20;24.60;;;;;;;;;;5093622;28;20560;-82
2023/02/28 13:56:43;;;;;;;15.97;11.50;;;;;;;;;;5093442;28;20197;-82
2023/02/28 13:59:20;;;;;;;26.57;21.90;;;;;;;;;;5096476;28;20216;-82
2023/02/28 14:01:54;;;;;;;20.40;16.67;;;;;;;;;;5113982;28;20199;-82
2023/02/28 14:04:55;;;;;;;19.33;12.37;;;;;;;;;;5107459;28;20203;-83
2023/02/28 14:07:24;;;;;;;11.93;10.00;;;;;;;;;;5107110;28;20219;-83
2023/02/28 14:09:57;;;;;;;23.00;12.67;;;;;;;;;;5093469;28;20200;-83
2023/02/28 14:13:10;;;;;;;15.97;12.87;;;;;;;;;;5096361;28;20196;-83
2023/02/28 14:15:44;;;;;;;17.47;13.90;;;;;;;;;;5099429;28;20203;-82
2023/02/28 14:18:22;;;;;;;16.10;11.80;;;;;;;;;;5102652;28;20648;-82
2023/02/28 14:20:50;;;;;;;15.07;11.83;;;;;;;;;;5094194;28;20203;-83
2023/02/28 14:23:27;;;;;;;14.70;11.97;;;;;;;;;;5100265;28;20215;-82
2023/02/28 14:25:58;;;;;;;26.17;18.23;;;;;;;;;;5100592;28;20274;-82
2023/02/28 14:28:35;;;;;;;21.40;16.50;;;;;;;;;;5113180;28;20203;-82
2023/02/28 14:31:09;;;;;;;29.93;22.17;;;;;;;;;;5101832;28;20249;-83
2023/02/28 14:33:55;;;;;;;45.73;34.90;;;;;;;;;;5106039;28;20680;-82
2023/02/28 14:36:26;;;;;;;31.30;24.17;;;;;;;;;;5094016;28;20703;-82
2023/02/28 14:38:56;;;;;;;27.23;23.13;;;;;;;;;;5104756;28;20196;-82
2023/02/28 14:41:25;;;;;;;16.47;13.00;;;;;;;;;;5105998;28;20195;-82
2023/02/28 14:43:56;;;;;;;15.23;12.83;;;;;;;;;;5102634;28;20195;-83
2023/02/28 14:46:28;;;;;;;29.97;26.93;;;;;;;;;;5095141;28;20767;-82
2023/02/28 14:48:55;;;;;;;40.63;36.47;;;;;;;;;;5103588;28;20224;-82
2023/02/28 14:51:24;;;;;;;21.60;16.83;;;;;;;;;;5107485;28;20586;-82